createdAt,value
2023-02-11T00:04:28.660Z,68.63
2023-02-11T00:08:52.877Z,68.19
2023-02-11T00:13:16.903Z,67.88
2023-02-11T00:17:41.401Z,67.34
2023-02-11T00:22:08.047Z,67.00
2023-02-11T00:27:04.446Z,67.03
2023-02-11T00:31:09.400Z,68.05
2023-02-11T00:35:35.691Z,67.61
2023-02-11T00:40:01.700Z,67.50
2023-02-11T00:44:24.326Z,68.19
2023-02-11T00:48:48.342Z,68.85
2023-02-11T00:53:19.665Z,68.55
2023-02-11T00:57:44.149Z,68.80
2023-02-11T01:02:08.159Z,68.20
2023-02-11T01:06:32.145Z,68.42
2023-02-11T01:10:56.195Z,67.76
2023-02-11T01:15:20.232Z,68.03
2023-02-11T01:19:43.294Z,67.64
2023-02-11T01:24:25.967Z,67.79
2023-02-11T01:28:55.627Z,68.47
2023-02-11T01:33:19.850Z,68.32
2023-02-11T01:37:44.364Z,68.09
2023-02-11T01:42:08.334Z,68.20
2023-02-11T01:46:42.128Z,68.20
2023-02-11T01:51:29.919Z,68.76
2023-02-11T01:55:52.565Z,68.55
2023-02-11T02:00:16.485Z,68.85
2023-02-11T02:04:40.571Z,68.70
2023-02-11T02:09:34.278Z,68.52
2023-02-11T02:13:58.860Z,68.86
2023-02-11T02:18:43.153Z,68.79
2023-02-11T02:23:26.388Z,68.95
2023-02-11T02:27:51.779Z,68.97
2023-02-11T02:32:47.862Z,69.04
2023-02-11T02:37:53.630Z,68.96
2023-02-11T02:42:17.779Z,68.91
2023-02-11T02:46:50.806Z,68.85
2023-02-11T02:51:23.640Z,69.54
2023-02-11T02:56:26.154Z,69.30
2023-02-11T03:00:53.114Z,69.59
2023-02-11T03:05:29.314Z,69.84
2023-02-11T03:09:53.607Z,69.70
2023-02-11T03:14:17.599Z,69.60
2023-02-11T03:18:41.514Z,70.38
2023-02-11T03:23:08.258Z,70.71
2023-02-11T03:27:35.311Z,70.22
2023-02-11T03:32:02.574Z,69.86
2023-02-11T03:36:52.581Z,69.68
2023-02-11T03:41:17.383Z,69.82
2023-02-11T03:46:01.367Z,70.41
2023-02-11T03:50:29.398Z,70.74
2023-02-11T03:54:53.869Z,70.36
2023-02-11T03:59:33.931Z,69.64
2023-02-11T04:03:58.395Z,69.92
2023-02-11T04:08:31.043Z,69.65
2023-02-11T04:12:59.444Z,70.19
2023-02-11T04:17:43.432Z,70.68
2023-02-11T04:22:07.518Z,70.56
2023-02-11T04:26:31.875Z,70.21
2023-02-11T04:30:56.665Z,69.77
2023-02-11T04:35:24.938Z,69.74
2023-02-11T04:39:49.312Z,70.13
2023-02-11T04:44:17.137Z,70.30
2023-02-11T04:48:43.932Z,69.91
2023-02-11T04:53:07.923Z,69.93
2023-02-11T04:57:31.927Z,69.60
2023-02-11T05:01:55.967Z,69.76
2023-02-11T05:06:19.630Z,69.32
2023-02-11T05:10:43.631Z,69.59
2023-02-11T05:15:07.685Z,70.15
2023-02-11T05:19:40.426Z,70.19
2023-02-11T05:24:04.770Z,70.56
2023-02-11T05:28:28.808Z,70.32
2023-02-11T05:32:55.185Z,70.23
2023-02-11T05:37:19.545Z,70.49
2023-02-11T05:41:43.648Z,70.58
2023-02-11T05:46:07.689Z,70.45
2023-02-11T05:50:31.711Z,70.30
2023-02-11T05:54:55.659Z,70.35
2023-02-11T05:59:19.595Z,70.28
2023-02-11T06:03:43.308Z,70.68
2023-02-11T06:08:09.457Z,70.61
2023-02-11T06:12:49.016Z,70.74
2023-02-11T06:17:15.643Z,70.95
2023-02-11T06:21:43.973Z,70.97
2023-02-11T06:26:10.835Z,71.29
2023-02-11T06:30:34.786Z,71.23
2023-02-11T06:34:58.689Z,71.05
2023-02-11T06:39:43.527Z,70.75
2023-02-11T06:44:15.634Z,70.63
2023-02-11T06:48:39.503Z,71.09
2023-02-11T06:53:24.701Z,70.91
2023-02-11T06:57:52.439Z,70.73
2023-02-11T07:02:38.496Z,70.55
2023-02-11T07:07:04.809Z,70.21
2023-02-11T07:11:29.490Z,70.40
2023-02-11T07:16:22.547Z,70.64
2023-02-11T07:21:26.353Z,70.53
2023-02-11T07:26:11.396Z,70.39
2023-02-11T07:30:56.507Z,70.19
2023-02-11T07:35:22.913Z,70.06
2023-02-11T07:39:46.963Z,69.85
2023-02-11T07:44:09.333Z,70.08
2023-02-11T07:48:33.377Z,70.26
2023-02-11T07:53:22.751Z,70.16
2023-02-11T07:58:07.238Z,69.83
2023-02-11T08:03:04.008Z,69.61
2023-02-11T08:07:36.108Z,69.91
2023-02-11T08:12:28.666Z,69.95
2023-02-11T08:16:59.808Z,69.70
2023-02-11T08:21:23.813Z,69.39
2023-02-11T08:26:07.972Z,69.23
2023-02-11T08:30:54.187Z,69.40
2023-02-11T08:35:40.321Z,69.61
2023-02-11T08:40:44.303Z,69.12
2023-02-11T08:45:28.225Z,68.85
2023-02-11T08:50:16.642Z,68.50
2023-02-11T08:55:20.584Z,68.52
2023-02-11T09:00:24.125Z,68.41
2023-02-11T09:05:28.946Z,67.62
2023-02-11T09:10:32.970Z,67.56
2023-02-11T09:15:36.852Z,68.15
2023-02-11T09:20:41.263Z,67.74
2023-02-11T09:25:45.118Z,67.52
2023-02-11T09:30:49.388Z,66.01
2023-02-11T09:35:53.086Z,66.15
2023-02-11T09:40:57.068Z,66.05
2023-02-11T09:46:07.998Z,66.00
2023-02-11T09:50:53.921Z,65.40
2023-02-11T09:55:59.011Z,65.41
2023-02-11T10:01:05.931Z,65.34
2023-02-11T10:06:07.961Z,64.99
2023-02-11T10:10:58.214Z,64.80
2023-02-11T10:16:05.009Z,64.49
2023-02-11T10:21:11.471Z,64.64
2023-02-11T10:25:56.469Z,63.99
2023-02-11T10:31:03.074Z,62.96
2023-02-11T10:35:54.484Z,62.14
2023-02-11T10:40:54.459Z,61.55
2023-02-11T10:45:18.422Z,61.64
2023-02-11T10:50:05.157Z,61.03
2023-02-11T10:54:46.134Z,60.92
2023-02-11T10:59:13.155Z,60.89
2023-02-11T11:03:16.719Z,60.67
2023-02-11T11:07:39.054Z,60.75
2023-02-11T11:12:03.018Z,60.24
2023-02-11T11:16:27.296Z,59.93
2023-02-11T11:21:25.044Z,60.01
2023-02-11T11:26:00.864Z,58.75
2023-02-11T11:31:05.679Z,57.66
2023-02-11T11:36:08.940Z,58.80
2023-02-11T11:41:17.814Z,57.98
2023-02-11T11:46:16.266Z,56.28
2023-02-11T11:51:26.484Z,57.14
2023-02-11T11:56:33.878Z,57.77
2023-02-11T12:01:40.606Z,58.58
2023-02-11T12:06:53.093Z,58.81
2023-02-11T12:11:58.231Z,58.71
2023-02-11T12:17:05.614Z,58.47
2023-02-11T12:22:24.918Z,58.38
2023-02-11T12:27:27.085Z,58.30
2023-02-11T12:32:00.401Z,57.92
2023-02-11T12:37:03.476Z,58.32
2023-02-11T12:41:54.282Z,58.01
2023-02-11T12:46:52.555Z,57.96
2023-02-11T12:51:50.258Z,57.92
2023-02-11T12:56:37.064Z,58.08
2023-02-11T13:01:49.719Z,58.12
2023-02-11T13:06:53.661Z,58.23
2023-02-11T13:11:40.530Z,58.15
2023-02-11T13:16:46.891Z,58.13
2023-02-11T13:21:55.708Z,58.11
2023-02-11T13:26:59.475Z,58.13
2023-02-11T13:32:05.421Z,57.43
2023-02-11T13:37:10.530Z,57.16
2023-02-11T13:42:19.286Z,57.11
2023-02-11T13:47:27.450Z,57.08
2023-02-11T13:52:37.209Z,57.02
2023-02-11T13:57:39.815Z,57.38
2023-02-11T14:02:29.072Z,56.65
2023-02-11T14:07:46.739Z,57.24
2023-02-11T14:12:57.400Z,57.56
2023-02-11T14:18:02.372Z,57.20
2023-02-11T14:23:21.891Z,56.71
2023-02-11T14:28:31.620Z,57.42
2023-02-11T14:33:20.428Z,57.58
2023-02-11T14:38:44.686Z,57.79
2023-02-11T14:43:15.198Z,57.63
2023-02-11T14:47:42.581Z,57.54
2023-02-11T14:52:06.579Z,57.68
2023-02-11T14:57:22.705Z,57.95
2023-02-11T15:02:09.669Z,57.96
2023-02-11T15:07:08.428Z,58.06
2023-02-11T15:11:36.006Z,58.24
2023-02-11T15:16:39.544Z,58.37
2023-02-11T15:21:23.464Z,58.49
2023-02-11T15:25:47.534Z,58.87
2023-02-11T15:30:17.937Z,58.94
2023-02-11T15:34:42.046Z,59.47
2023-02-11T15:39:05.963Z,59.66
2023-02-11T15:43:44.226Z,59.82
2023-02-11T15:48:30.952Z,60.24
2023-02-11T15:52:55.060Z,60.20
2023-02-11T15:57:21.897Z,60.48
2023-02-11T16:01:45.851Z,60.57
2023-02-11T16:06:12.479Z,60.78
2023-02-11T16:11:01.163Z,61.53
2023-02-11T16:15:46.628Z,61.89
2023-02-11T16:20:13.212Z,62.06
2023-02-11T16:24:35.418Z,61.88
2023-02-11T16:28:59.399Z,62.10
2023-02-11T16:33:25.235Z,62.00
2023-02-11T16:37:49.277Z,61.92
2023-02-11T16:42:15.442Z,62.30
2023-02-11T16:46:39.833Z,62.63
2023-02-11T16:51:26.379Z,63.04
2023-02-11T16:56:13.072Z,63.27
2023-02-11T17:00:40.953Z,63.22
2023-02-11T17:05:07.787Z,63.04
2023-02-11T17:09:31.882Z,63.29
2023-02-11T17:13:59.697Z,62.97
2023-02-11T17:18:23.606Z,63.07
2023-02-11T17:22:47.681Z,63.96
2023-02-11T17:27:12.702Z,64.06
2023-02-11T17:31:37.040Z,63.94
2023-02-11T17:36:21.304Z,63.74
2023-02-11T17:40:49.516Z,63.65
2023-02-11T17:45:33.859Z,64.17
2023-02-11T17:50:18.893Z,64.06
2023-02-11T17:55:02.928Z,64.82
2023-02-11T17:59:27.445Z,64.52
2023-02-11T18:03:53.656Z,64.82
2023-02-11T18:08:17.681Z,64.80
2023-02-11T18:12:43.036Z,64.93
2023-02-11T18:17:27.069Z,64.76
2023-02-11T18:22:13.870Z,65.37
2023-02-11T18:26:38.253Z,65.49
2023-02-11T18:31:23.243Z,65.43
2023-02-11T18:36:09.475Z,65.26
2023-02-11T18:40:34.195Z,65.14
2023-02-11T18:44:58.505Z,65.03
2023-02-11T18:49:42.519Z,65.57
2023-02-11T18:54:46.682Z,65.69
2023-02-11T18:59:50.524Z,65.63
2023-02-11T19:04:54.485Z,65.50
2023-02-11T19:09:18.943Z,65.47
2023-02-11T19:14:23.235Z,66.18
2023-02-11T19:19:07.787Z,66.15
2023-02-11T19:24:11.781Z,66.18
2023-02-11T19:29:11.976Z,66.91
2023-02-11T19:34:15.846Z,66.40
2023-02-11T19:38:40.808Z,66.68
2023-02-11T19:43:45.812Z,66.95
2023-02-11T19:48:26.553Z,66.97
2023-02-11T19:53:31.596Z,67.55
2023-02-11T19:58:28.221Z,67.38
2023-02-11T20:03:33.080Z,68.04
2023-02-11T20:08:33.980Z,67.92
2023-02-11T20:13:35.256Z,67.92
2023-02-11T20:18:39.775Z,68.07
2023-02-11T20:23:23.785Z,68.77
2023-02-11T20:27:47.748Z,68.70
2023-02-11T20:32:19.790Z,68.90
2023-02-11T20:37:09.287Z,68.49
2023-02-11T20:41:53.790Z,68.96
2023-02-11T20:46:42.353Z,69.15
2023-02-11T20:51:37.790Z,69.23
2023-02-11T20:56:05.789Z,69.31
2023-02-11T21:00:30.124Z,69.43
2023-02-11T21:05:15.149Z,69.75
2023-02-11T21:09:59.041Z,70.13
2023-02-11T21:14:23.502Z,69.97
2023-02-11T21:19:27.702Z,70.48
2023-02-11T21:24:11.647Z,70.59
2023-02-11T21:28:36.069Z,70.57
2023-02-11T21:33:00.876Z,70.91
2023-02-11T21:37:44.751Z,71.40
2023-02-11T21:42:13.192Z,71.94
2023-02-11T21:46:46.649Z,71.68
2023-02-11T21:51:45.509Z,71.32
2023-02-11T21:56:27.834Z,71.66
2023-02-11T22:00:43.089Z,71.63
2023-02-11T22:05:07.198Z,71.89
2023-02-11T22:09:23.837Z,72.54
2023-02-11T22:13:47.795Z,72.42
2023-02-11T22:18:32.704Z,72.86
2023-02-11T22:23:16.816Z,72.85
2023-02-11T22:27:58.133Z,73.61
2023-02-11T22:32:25.224Z,73.90
2023-02-11T22:37:02.761Z,73.09
2023-02-11T22:41:19.832Z,73.08
2023-02-11T22:45:48.138Z,73.08
2023-02-11T22:50:13.575Z,73.13
2023-02-11T22:54:57.310Z,73.70
2023-02-11T22:59:23.471Z,73.23
2023-02-11T23:03:47.438Z,73.92
2023-02-11T23:08:31.616Z,74.41
2023-02-11T23:13:36.334Z,73.62
2023-02-11T23:18:36.201Z,73.51
2023-02-11T23:23:00.227Z,73.59
2023-02-11T23:27:44.296Z,73.86
2023-02-11T23:32:15.521Z,74.24
2023-02-11T23:37:09.203Z,74.46
2023-02-11T23:41:41.407Z,74.56
2023-02-11T23:46:05.543Z,74.24
2023-02-11T23:50:50.224Z,73.72
2023-02-11T23:55:54.091Z,73.94
